Weather observations for the past three days for
Hermiston, Hermiston Municipal Airport
Imperial (Metric)
Date Time (pdt) Wind (mph) Vis. (mi.) Weather Sky Cond. Temperature (ºF) Relative Humidity Wind Chill (°F) Heat Index (°F) Pressure Precipitation (in)
Air Dwpt 6 hour altimeter (in) sea level (mb) 1 hr 3 hr 6 hr
Max. Min.
01 08:53 SW 9 10.00 Fair CLR 70 48 46% 29.74 1006.7
01 07:53 Calm 10.00 Fair CLR 63 46 54% 29.73 1006.3
01 06:53 S 6 10.00 Fair CLR 57 43 60% 29.72 1006.1
01 05:53 S 3 10.00 Fair CLR 57 45 64% 29.71 1005.5
01 04:53 Calm 10.00 Fair CLR 59 46.9 68 57.9 64% 29.7 1005.2
01 03:53 Calm 10.00 Fair CLR 59 42.1 54% 29.71 1005.5
01 02:53 S 6 10.00 Fair CLR 62.1 42.1 48% 29.71 1005.6
01 01:53 S 7 10.00 Fair CLR 57.9 41 53% 29.72 1005.8
01 00:53 S 5 10.00 Fair CLR 57.9 42.1 56% 29.72 1006.1
31 23:53 SW 8 10.00 Fair CLR 68 44.1 42% 29.72 1005.7
31 22:53 S 5 10.00 Fair CLR 64 45 88 64 50% 29.71 1005.7
31 21:53 Calm 10.00 Fair CLR 66 44.1 45% 29.72 1006.0
31 20:53 Calm 10.00 Fair CLR 68 39.9 36% 29.71 1005.8
31 19:53 N 5 10.00 Fair CLR 78.1 42.1 28% 78 29.71 1005.5
31 18:53 N 3 10.00 Fair CLR 82.9 44.1 25% 81 29.71 1005.8
31 17:53 N 7 10.00 Fair CLR 86 42.1 21% 83 29.73 1006.2
31 16:53 E 9 10.00 Fair CLR 87.1 37 87.1 72 17% 84 29.75 1006.9
31 15:53 NE 9 10.00 Fair CLR 86 37.9 18% 83 29.78 1007.9
31 14:53 N 10 10.00 Fair CLR 84.9 37.9 19% 82 29.81 1008.8
31 13:53 NE 13 10.00 Fair CLR 82 39 22% 80 29.84 1010.0
31 12:53 NE 10 10.00 Fair CLR 80.1 39.9 24% 79 29.87 1010.9
31 11:53 NE 6 10.00 Fair CLR 75.9 42.1 30% 77 29.9 1012.1
31 10:53 Vrbl 3 10.00 Fair CLR 71.1 43 71.1 45 36% 29.93 1013.1
31 09:53 NE 6 10.00 Fair CLR 66 42.1 42% 29.94 1013.5
31 08:53 Calm 10.00 Fair CLR 61 39 44% 29.96 1014.1
31 07:53 SE 5 10.00 Fair CLR 55 39.9 57% 29.96 1014.3
31 06:53 SE 3 10.00 Fair CLR 48.9 42.1 77% 29.94 1013.7
31 05:53 SE 3 10.00 Fair CLR 46.9 42.1 83% 29.94 1013.5
31 04:53 SE 3 10.00 Fair CLR 46 41 59 46 83% 29.94 1013.5
31 03:53 SE 5 10.00 Fair CLR 51.1 39.9 66% 29.93 1013.3
31 02:53 E 6 10.00 Fair CLR 52 42.1 69% 29.94 1013.5
31 01:53 E 5 10.00 Fair CLR 50 42.1 74% 49 29.95 1014.0
31 00:53 E 5 10.00 Fair CLR 53.1 41 64% 29.95 1013.9
30 23:53 Calm 10.00 Fair CLR 55 43 64% 29.96 1014.1
30 21:53 SE 8 10.00 Fair CLR 59 43 56% 29.96 1014.1
30 20:53 E 5 10.00 Fair CLR 63 44.1 50% 29.96 1014.1
30 19:53 E 5 10.00 Fair CLR 70 43 38% 29.95 1013.8
30 18:53 NE 7 10.00 Fair CLR 75.9 39.9 27% 77 29.95 1013.7
30 17:53 Calm 10.00 Fair CLR 78.1 37 23% 78 29.95 1013.9
30 16:53 SW 5 10.00 Fair CLR 78.1 39 79 68 25% 78 29.97 1014.3
30 15:53 N 6 10.00 Fair CLR 78.1 39 25% 78 29.98 1014.8
30 14:53 W 7 10.00 Fair CLR 77 37.9 24% 77 30 1015.6
30 13:53 SW 7 G 18 10.00 Fair CLR 75.9 39.9 27% 77 30.02 1016.3
30 12:53 SW 8 10.00 Fair CLR 73 41 32% 30.05 1017.1
30 11:53 W 7 G 17 10.00 Fair CLR 71.1 41 34% 30.07 1017.8
30 10:53 W 12 10.00 Fair CLR 66.9 41 68 48 39% 30.08 1018.4
30 09:53 W 14 G 22 10.00 Fair CLR 64.9 42.1 43% 30.1 1018.8
30 08:53 W 9 10.00 Fair CLR 64 42.1 45% 30.1 1018.9
30 07:53 S 5 10.00 Fair CLR 57.9 41 53% 30.1 1018.8
30 06:53 SW 5 10.00 Fair CLR 54 43 67% 30.09 1018.7
30 05:53 S 7 10.00 Fair CLR 53.1 42.1 66% 30.08 1018.2
30 04:53 SW 8 10.00 Fair CLR 55 43 59 53.1 64% 30.07 1018.0
30 03:53 SW 9 10.00 Fair CLR 55 42.1 62% 30.07 1017.8
30 02:53 SW 3 10.00 Fair CLR 55.9 42.1 60% 30.06 1017.5
30 01:53 SW 8 10.00 Fair CLR 57 44.1 62% 30.05 1017.1
30 00:53 SW 10 10.00 Fair CLR 59 44.1 58% 30.04 1017.0
29 23:53 SW 12 10.00 Fair CLR 59 44.1 58% 30.04 1016.8
29 22:53 W 8 10.00 Fair CLR 59 44.1 73.9 59 58% 30.03 1016.7
29 21:53 SW 14 10.00 A Few Clouds FEW090 62.1 44.1 52% 30.03 1016.4
29 20:53 SW 15 10.00 Fair CLR 64 44.1 48% 30 1015.6
29 19:53 W 14 10.00 Fair CLR 66 42.1 42% 29.99 1015.1
29 18:53 W 20 G 30 10.00 Mostly Cloudy BKN090 70 41 35% 29.98 1014.7
29 17:53 W 20 G 32 10.00 Fair CLR 73 39.9 30% 29.97 1014.5
29 16:53 W 22 G 31 10.00 A Few Clouds and Breezy FEW090 75 39.9 75.9 69.1 28% 77 29.97 1014.5
29 15:53 W 20 G 31 10.00 Fair CLR 75 39 27% 77 29.97 1014.6
29 14:53 SW 21 G 35 10.00 Fair and Breezy CLR 73.9 37 26% 29.97 1014.6
29 13:53 W 25 G 35 10.00 Fair and Breezy CLR 73 37.9 28% 29.98 1014.9
29 12:53 W 29 G 37 10.00 Fair and Windy CLR 73.9 41 31% 29.98 1014.7
29 11:53 W 25 G 36 10.00 A Few Clouds and Breezy FEW075 72 39.9 31% 29.99 1015.1
29 10:53 W 23 G 35 10.00 Fair and Breezy CLR 70 45 70 60.1 41% 29.99 1015.1
29 09:53 SW 20 G 36 10.00 Fair CLR 68 45 44% 29.98 1014.7
Date Time (pdt) Wind (mph) Vis. (mi.) Weather Sky Cond. Air Dwpt Max. Min. Relative Humidity Wind Chill (°F) Heat Index (°F) altimeter (in) sea level (mb) 1 hr 3 hr 6 hr
6 hour
Temperature (ºF) Pressure Precipitation (in)